KLEX/LEX METAR and TAF weather

Enter ICAO airport designator
Station Type Date Time Source
KLEX METAR 2021/07/30 06:54 UTC NOAA

KLEX 300654Z 00000KT 10SM VCTS SCT017 24/23 A2996 RMK AO2 LTG DSNT SE-W RAB0556E06 TSE26 SLP132 P0000 T02440233


Station Type Date Time Source
KLEX Decoded METAR 2021/07/30 06:54 UTC NOAA

LEXINGTON BLUE GRASS AIRPORT, KY, United States (KLEX) 38-02N 084-36W 300M
Jul 30, 2021 - 02:54 AM EDT / 2021.07.30 0654 UTC
Wind: Calm:0
Visibility: 10 mile(s):0
Sky conditions: partly cloudy
Weather: thunder in the vicinity; Lightning observed
Precipitation last hour: A trace
Temperature: 75.9 F (24.4 C)
Dew Point: 73.9 F (23.3 C)
Relative Humidity: 93%
Pressure (altimeter): 29.96 in. Hg (1014 hPa)
ob: KLEX 300654Z 00000KT 10SM VCTS SCT017 24/23 A2996 RMK AO2 LTG DSNT SE-W RAB0556E06 TSE26 SLP132 P0000 T02440233
cycle: 7

Station Type Date Time Source
KLEX TAF 2021/07/30 06:22 UTC NOAA

TAF KLEX 300520Z 3006/3106 28005KT P6SM VCTS BKN040CB
TEMPO 3006/3008 VRB10G20KT 2SM -TSRA BKN030CB
FM301000 36006KT P6SM BKN035
FM301700 36009KT P6SM SCT040
FM310000 02004KT P6SM SCT250

Example: see airport list